Terminal Aerodrome Forecast
Issued by NWS

Home | Current Version | Previous Version | Text Only | Print | Product List | Glossary On
Versions: 1 2 3 4 5 6 7 8 9 10 11 12 13 14 15 16 17 18 19 20 21
000
FTUS41 KPBZ 221100
TAFZZV
TAF
KZZV 221120Z 2212/2312 19005KT P6SM BKN040 WS015/24030KT
      TEMPO 2212/2215 5SM -FZRA BKN025
     FM221500 21008KT P6SM OVC030 WS015/24040KT
     FM221700 21012KT P6SM OVC040
     FM222200 21008KT P6SM OVC070=

USA.gov is the U.S. government's official web portal to all federal, state and local government web resources and services.